createdAt,value
2019-02-20T00:01:03.773Z,17.77
2019-02-20T00:03:33.991Z,16.70
2019-02-20T00:06:04.112Z,25.00
2019-02-20T00:08:34.183Z,18.73
2019-02-20T00:11:04.282Z,19.03
2019-02-20T00:13:34.468Z,22.07
2019-02-20T00:16:04.494Z,23.53
2019-02-20T00:18:34.681Z,18.37
2019-02-20T00:21:04.693Z,20.70
2019-02-20T00:23:34.849Z,20.53
2019-02-20T00:26:05.026Z,19.30
2019-02-20T00:28:35.335Z,22.87
2019-02-20T00:31:05.539Z,23.97
2019-02-20T00:33:35.613Z,22.33
2019-02-20T00:36:07.407Z,25.10
2019-02-20T00:38:37.502Z,22.83
2019-02-20T00:41:07.625Z,26.20
2019-02-20T00:43:41.437Z,26.93
2019-02-20T00:46:23.455Z,25.67
2019-02-20T00:49:08.056Z,18.10
2019-02-20T00:52:00.165Z,22.20
2019-02-20T00:54:30.693Z,24.60
2019-02-20T00:57:00.768Z,24.30
2019-02-20T00:59:31.128Z,27.73
2019-02-20T01:02:01.290Z,22.77
2019-02-20T01:04:31.472Z,26.43
2019-02-20T01:07:01.572Z,21.23
2019-02-20T01:09:33.828Z,26.40
2019-02-20T01:12:07.217Z,25.17
2019-02-20T01:14:37.288Z,25.83
2019-02-20T01:17:07.373Z,24.57
2019-02-20T01:19:37.489Z,24.30
2019-02-20T01:22:07.638Z,23.80
2019-02-20T01:24:49.559Z,23.83
2019-02-20T01:27:24.486Z,24.70
2019-02-20T01:29:57.980Z,25.47
2019-02-20T01:32:28.211Z,24.57
2019-02-20T01:34:58.238Z,24.07
2019-02-20T01:37:28.377Z,25.40
2019-02-20T01:40:00.773Z,23.70
2019-02-20T01:42:30.803Z,26.03
2019-02-20T01:45:00.973Z,27.17
2019-02-20T01:47:31.036Z,29.63
2019-02-20T01:50:01.093Z,31.83
2019-02-20T01:52:31.607Z,33.07
2019-02-20T01:55:01.724Z,28.70
2019-02-20T01:57:31.980Z,30.83
2019-02-20T02:00:02.089Z,28.57
2019-02-20T02:02:32.276Z,33.80
2019-02-20T02:05:02.703Z,28.97
2019-02-20T02:07:32.811Z,31.03
2019-02-20T02:10:02.960Z,29.53
2019-02-20T02:12:33.326Z,30.83
2019-02-20T02:15:03.444Z,28.47
2019-02-20T02:17:33.509Z,32.17
2019-02-20T02:20:03.637Z,30.27
2019-02-20T02:22:33.860Z,30.20
2019-02-20T02:25:03.952Z,26.87
2019-02-20T02:27:33.986Z,28.90
2019-02-20T02:30:04.608Z,26.67
2019-02-20T02:32:34.770Z,26.43
2019-02-20T02:35:05.066Z,28.77
2019-02-20T02:37:35.118Z,28.70
2019-02-20T02:40:05.710Z,26.57
2019-02-20T02:42:35.842Z,35.17
2019-02-20T02:45:06.065Z,29.53
2019-02-20T02:47:36.149Z,28.33
2019-02-20T02:50:06.400Z,31.83
2019-02-20T02:52:36.408Z,31.33
2019-02-20T02:55:06.531Z,32.47
2019-02-20T02:57:36.655Z,33.37
2019-02-20T03:00:07.296Z,30.80
2019-02-20T03:02:37.460Z,31.13
2019-02-20T03:05:07.775Z,32.67
2019-02-20T03:07:37.797Z,31.43
2019-02-20T03:10:07.840Z,32.83
2019-02-20T03:12:49.257Z,32.37
2019-02-20T03:15:19.408Z,34.87
2019-02-20T03:17:49.420Z,29.13
2019-02-20T03:20:19.525Z,28.57
2019-02-20T03:22:49.590Z,33.07
2019-02-20T03:25:19.656Z,32.43
2019-02-20T03:27:50.908Z,31.43
2019-02-20T03:30:21.057Z,30.70
2019-02-20T03:32:52.204Z,29.00
2019-02-20T03:35:22.381Z,35.90
2019-02-20T03:37:53.307Z,34.60
2019-02-20T03:40:23.399Z,27.43
2019-02-20T03:42:53.622Z,32.10
2019-02-20T03:45:23.679Z,28.67
2019-02-20T03:47:53.737Z,34.97
2019-02-20T03:50:23.877Z,26.53
2019-02-20T03:52:53.911Z,33.23
2019-02-20T03:55:24.109Z,31.73
2019-02-20T03:57:54.128Z,29.13
2019-02-20T04:00:24.327Z,28.73
2019-02-20T04:02:54.489Z,28.50
2019-02-20T04:05:24.513Z,35.93
2019-02-20T04:07:54.497Z,30.97
2019-02-20T04:10:24.535Z,30.07
2019-02-20T04:12:54.555Z,30.37
2019-02-20T04:15:24.669Z,33.70
2019-02-20T04:17:56.361Z,34.00
2019-02-20T04:20:26.409Z,34.27
2019-02-20T04:22:56.414Z,31.20
2019-02-20T04:25:26.474Z,35.03
2019-02-20T04:27:56.530Z,27.80
2019-02-20T04:30:26.579Z,31.33
2019-02-20T04:32:58.617Z,28.53
2019-02-20T04:35:29.048Z,30.57
2019-02-20T04:38:01.963Z,31.47
2019-02-20T04:40:32.086Z,33.07
2019-02-20T04:43:02.090Z,29.77
2019-02-20T04:45:32.120Z,33.80
2019-02-20T04:48:02.148Z,30.43
2019-02-20T04:50:32.227Z,36.13
2019-02-20T04:53:03.409Z,29.33
2019-02-20T04:55:33.624Z,31.60
2019-02-20T04:58:22.766Z,29.60
2019-02-20T05:00:52.893Z,35.23
2019-02-20T05:03:23.315Z,34.90
2019-02-20T05:05:53.506Z,31.17
2019-02-20T05:08:23.617Z,35.87
2019-02-20T05:10:54.792Z,32.87
2019-02-20T05:13:24.815Z,34.27
2019-02-20T05:15:54.855Z,32.27
2019-02-20T05:18:24.967Z,35.20
2019-02-20T05:20:56.387Z,29.40
2019-02-20T05:23:26.473Z,31.10
2019-02-20T05:25:56.508Z,34.13
2019-02-20T05:28:26.590Z,31.50
2019-02-20T05:30:56.614Z,33.80
2019-02-20T05:33:26.697Z,32.93
2019-02-20T05:35:56.735Z,30.27
2019-02-20T05:38:26.733Z,37.30
2019-02-20T05:40:56.751Z,35.57
2019-02-20T05:43:26.818Z,35.60
2019-02-20T05:45:56.879Z,37.17
2019-02-20T05:48:27.005Z,34.13
2019-02-20T05:50:57.137Z,37.67
2019-02-20T05:53:27.182Z,33.70
2019-02-20T05:55:58.060Z,36.77
2019-02-20T05:58:28.228Z,35.67
2019-02-20T06:00:58.278Z,33.30
2019-02-20T06:03:28.951Z,35.57
2019-02-20T06:05:58.998Z,47.90
2019-02-20T06:08:29.121Z,38.63
2019-02-20T06:10:59.158Z,35.83
2019-02-20T06:13:29.277Z,37.27
2019-02-20T06:15:59.376Z,44.23
2019-02-20T06:18:29.405Z,39.97
2019-02-20T06:20:59.809Z,40.10
2019-02-20T06:23:30.109Z,40.23
2019-02-20T06:26:00.244Z,36.97
2019-02-20T06:28:30.425Z,37.97
2019-02-20T06:31:00.456Z,38.20
2019-02-20T06:33:30.578Z,41.73
2019-02-20T06:36:00.606Z,39.93
2019-02-20T06:38:30.730Z,38.40
2019-02-20T06:41:00.761Z,38.87
2019-02-20T06:43:30.786Z,37.13
2019-02-20T06:46:00.880Z,37.63
2019-02-20T06:48:31.043Z,41.60
2019-02-20T06:51:01.057Z,41.97
2019-02-20T06:53:31.079Z,43.03
2019-02-20T06:56:02.256Z,43.10
2019-02-20T06:58:32.292Z,44.50
2019-02-20T07:01:02.412Z,42.47
2019-02-20T07:03:32.491Z,44.60
2019-02-20T07:06:36.373Z,35.70
2019-02-20T07:09:42.194Z,45.37
2019-02-20T07:12:56.318Z,41.20
2019-02-20T07:16:08.193Z,41.13
2019-02-20T07:19:16.532Z,42.97
2019-02-20T07:22:29.750Z,41.70
2019-02-20T07:25:36.326Z,44.60
2019-02-20T07:29:02.608Z,45.50
2019-02-20T07:31:32.702Z,44.17
2019-02-20T07:34:05.255Z,42.23
2019-02-20T07:36:34.581Z,45.37
2019-02-20T07:39:07.088Z,44.33
2019-02-20T07:41:37.130Z,43.97
2019-02-20T07:44:07.135Z,42.10
2019-02-20T07:46:37.197Z,43.17
2019-02-20T07:49:07.213Z,43.57
2019-02-20T07:51:37.386Z,41.67
2019-02-20T07:54:07.451Z,45.50
2019-02-20T07:56:37.659Z,41.33
2019-02-20T07:59:07.805Z,40.13
2019-02-20T08:01:37.868Z,38.80
2019-02-20T08:04:07.976Z,43.83
2019-02-20T08:06:38.059Z,41.70
2019-02-20T08:09:08.252Z,36.07
2019-02-20T08:11:38.311Z,40.97
2019-02-20T08:14:08.320Z,37.93
2019-02-20T08:16:38.370Z,44.63
2019-02-20T08:19:08.454Z,41.23
2019-02-20T08:21:38.736Z,41.47
2019-02-20T08:24:08.842Z,36.87
2019-02-20T08:26:39.127Z,39.20
2019-02-20T08:29:09.312Z,37.13
2019-02-20T08:31:39.487Z,40.33
2019-02-20T08:34:09.645Z,35.47
2019-02-20T08:36:39.814Z,36.73
2019-02-20T08:39:10.157Z,33.80
2019-02-20T08:41:40.367Z,32.23
2019-02-20T08:44:10.447Z,36.07
2019-02-20T08:46:40.592Z,34.60
2019-02-20T08:49:10.786Z,34.37
2019-02-20T08:51:41.175Z,35.07
2019-02-20T08:54:12.373Z,36.73
2019-02-20T08:56:42.495Z,31.33
2019-02-20T08:59:12.617Z,33.53
2019-02-20T09:01:42.773Z,31.30
2019-02-20T09:04:12.839Z,31.90
2019-02-20T09:06:42.858Z,31.00
2019-02-20T09:09:13.368Z,32.13
2019-02-20T09:11:45.534Z,34.47
2019-02-20T09:14:15.475Z,28.70
2019-02-20T09:16:45.517Z,26.37
2019-02-20T09:19:15.517Z,25.67
2019-02-20T09:21:45.542Z,32.70
2019-02-20T09:24:19.462Z,30.57
2019-02-20T09:26:49.708Z,28.23
2019-02-20T09:29:19.826Z,26.40
2019-02-20T09:31:50.159Z,27.87
2019-02-20T09:34:20.242Z,28.13
2019-02-20T09:36:50.461Z,24.73
2019-02-20T09:39:37.597Z,26.80
2019-02-20T09:42:09.946Z,29.17
2019-02-20T09:44:50.978Z,30.13
2019-02-20T09:47:21.293Z,26.07
2019-02-20T09:49:51.357Z,24.60
2019-02-20T09:52:21.425Z,27.23
2019-02-20T09:54:51.495Z,26.13
2019-02-20T09:57:21.751Z,28.50
2019-02-20T09:59:51.797Z,29.47
2019-02-20T10:02:21.863Z,43.70
2019-02-20T10:04:51.925Z,33.47
2019-02-20T10:07:22.132Z,35.63
2019-02-20T10:09:52.245Z,30.97
2019-02-20T10:12:22.298Z,24.40
2019-02-20T10:14:52.323Z,21.37
2019-02-20T10:17:22.403Z,21.30
2019-02-20T10:19:52.438Z,37.30
2019-02-20T10:22:22.525Z,31.47
2019-02-20T10:24:52.615Z,21.67
2019-02-20T10:27:22.763Z,33.77
2019-02-20T10:29:53.001Z,40.70
2019-02-20T10:32:23.123Z,41.83
2019-02-20T10:34:53.367Z,42.77
2019-02-20T10:37:23.472Z,18.57
2019-02-20T10:39:53.631Z,17.33
2019-02-20T10:42:23.915Z,19.43
2019-02-20T10:44:53.970Z,17.77
2019-02-20T10:47:23.993Z,18.03
2019-02-20T10:49:54.031Z,16.70
2019-02-20T10:52:24.203Z,15.57
2019-02-20T10:54:57.821Z,14.67
2019-02-20T10:57:28.548Z,12.70
2019-02-20T10:59:58.571Z,16.97
2019-02-20T11:02:28.616Z,13.80
2019-02-20T11:05:00.744Z,15.07
2019-02-20T11:07:30.910Z,14.40
2019-02-20T11:10:00.946Z,15.27
2019-02-20T11:12:31.017Z,15.17
2019-02-20T11:15:01.018Z,15.70
2019-02-20T11:17:31.066Z,16.33
2019-02-20T11:20:01.088Z,16.30
2019-02-20T11:22:32.133Z,12.47
2019-02-20T11:25:02.379Z,14.87
2019-02-20T11:27:32.744Z,15.37
2019-02-20T11:30:03.140Z,14.03
2019-02-20T11:32:34.461Z,13.97
2019-02-20T11:35:05.233Z,16.90
2019-02-20T11:37:35.388Z,16.50
2019-02-20T11:40:06.426Z,16.03
2019-02-20T11:42:39.373Z,15.47
2019-02-20T11:45:09.785Z,15.53
2019-02-20T11:47:41.514Z,13.43
2019-02-20T11:50:11.824Z,14.00
2019-02-20T11:52:42.595Z,15.97
2019-02-20T11:55:12.744Z,13.53
2019-02-20T11:57:42.788Z,14.13
2019-02-20T12:00:13.755Z,16.60
2019-02-20T12:02:43.958Z,15.27
2019-02-20T12:05:14.265Z,17.33
2019-02-20T12:07:44.436Z,15.13
2019-02-20T12:10:15.287Z,16.20
2019-02-20T12:12:45.371Z,17.80
2019-02-20T12:15:15.543Z,16.20
2019-02-20T12:17:45.619Z,14.57
2019-02-20T12:20:15.649Z,17.73
2019-02-20T12:22:45.792Z,18.90
2019-02-20T12:25:15.994Z,15.83
2019-02-20T12:27:46.081Z,16.23
2019-02-20T12:30:16.130Z,14.50
2019-02-20T12:32:46.320Z,16.63
2019-02-20T12:35:16.542Z,15.47
2019-02-20T12:37:46.717Z,15.17
2019-02-20T12:40:16.896Z,16.00
2019-02-20T12:42:46.951Z,17.60
2019-02-20T12:45:19.523Z,16.67
2019-02-20T12:47:49.643Z,14.83
2019-02-20T12:50:19.755Z,16.37
2019-02-20T12:52:49.934Z,17.83
2019-02-20T12:55:20.028Z,18.80
2019-02-20T12:57:50.475Z,17.03
2019-02-20T13:00:22.186Z,16.27
2019-02-20T13:02:52.305Z,20.73
2019-02-20T13:05:22.560Z,20.00
2019-02-20T13:07:52.622Z,15.23
2019-02-20T13:10:22.777Z,15.87
2019-02-20T13:12:52.951Z,17.40
2019-02-20T13:15:23.053Z,17.23
2019-02-20T13:17:53.088Z,16.50
2019-02-20T13:20:23.142Z,17.73
2019-02-20T13:22:58.763Z,15.07
2019-02-20T13:25:28.869Z,14.67
2019-02-20T13:27:58.961Z,14.03
2019-02-20T13:30:29.029Z,17.07
2019-02-20T13:32:59.089Z,14.27
2019-02-20T13:35:29.220Z,15.97
2019-02-20T13:37:59.358Z,14.93
2019-02-20T13:40:29.474Z,15.40
2019-02-20T13:42:59.695Z,14.03
2019-02-20T13:45:29.879Z,13.03
2019-02-20T13:48:00.336Z,13.10
2019-02-20T13:50:30.428Z,11.60
2019-02-20T13:53:00.567Z,10.23
2019-02-20T13:55:34.596Z,10.50
2019-02-20T13:58:02.436Z,10.93
2019-02-20T14:00:32.597Z,9.83
2019-02-20T14:03:03.413Z,8.63
2019-02-20T14:05:33.651Z,9.00
2019-02-20T14:08:03.810Z,9.00
2019-02-20T14:10:33.913Z,10.17
2019-02-20T14:13:04.059Z,5.27
2019-02-20T14:15:34.214Z,6.67
2019-02-20T14:18:04.794Z,4.57
2019-02-20T14:20:34.965Z,4.90
2019-02-20T14:23:06.706Z,7.20
2019-02-20T14:25:37.059Z,6.13
2019-02-20T14:28:08.252Z,7.20
2019-02-20T14:30:38.363Z,6.67
2019-02-20T14:33:08.554Z,8.27
2019-02-20T14:35:38.736Z,5.83
2019-02-20T14:38:08.941Z,8.83
2019-02-20T14:40:39.102Z,7.33
2019-02-20T14:43:11.996Z,8.80
2019-02-20T14:45:42.479Z,7.27
2019-02-20T14:48:12.631Z,8.73
2019-02-20T14:50:42.826Z,8.30
2019-02-20T14:53:13.150Z,8.17
2019-02-20T14:55:44.670Z,7.37
2019-02-20T14:58:14.866Z,8.53
2019-02-20T15:00:45.348Z,9.07
2019-02-20T15:03:15.496Z,7.60
2019-02-20T15:05:45.586Z,9.03
2019-02-20T15:08:15.688Z,7.30
2019-02-20T15:10:45.853Z,7.90
2019-02-20T15:13:15.958Z,8.70
2019-02-20T15:15:47.414Z,8.67
2019-02-20T15:18:17.630Z,6.37
2019-02-20T15:20:48.847Z,6.73
2019-02-20T15:23:19.117Z,6.37
2019-02-20T15:25:49.223Z,5.20
2019-02-20T15:28:19.871Z,5.83
2019-02-20T15:30:50.094Z,6.43
2019-02-20T15:33:20.235Z,7.60
2019-02-20T15:35:50.474Z,9.10
2019-02-20T15:38:20.985Z,8.50
2019-02-20T15:40:51.087Z,6.77
2019-02-20T15:43:21.658Z,5.87
2019-02-20T15:45:51.739Z,4.67
2019-02-20T15:48:23.505Z,6.23
2019-02-20T15:50:53.659Z,6.53
2019-02-20T15:53:23.811Z,4.83
2019-02-20T15:55:53.907Z,6.50
2019-02-20T15:58:24.221Z,5.77
2019-02-20T16:00:54.417Z,7.07
2019-02-20T16:03:24.553Z,7.60
2019-02-20T16:05:54.683Z,6.00
2019-02-20T16:08:24.803Z,5.50
2019-02-20T16:10:55.304Z,6.20
2019-02-20T16:13:25.472Z,7.53
2019-02-20T16:15:55.636Z,8.33
2019-02-20T16:18:25.795Z,9.13
2019-02-20T16:20:55.860Z,5.30
2019-02-20T16:23:26.054Z,10.07
2019-02-20T16:25:56.258Z,6.20
2019-02-20T16:28:33.588Z,6.40
2019-02-20T16:30:58.112Z,5.70
2019-02-20T16:33:28.281Z,5.97
2019-02-20T16:35:58.405Z,7.73
2019-02-20T16:38:28.628Z,6.57
2019-02-20T16:40:58.993Z,8.67
2019-02-20T16:43:29.108Z,7.53
2019-02-20T16:45:59.121Z,6.50
2019-02-20T16:48:29.314Z,6.33
2019-02-20T16:50:59.323Z,7.60
2019-02-20T16:53:29.517Z,5.67
2019-02-20T16:56:00.026Z,7.30
2019-02-20T16:58:30.170Z,6.10
2019-02-20T17:01:00.261Z,7.80
2019-02-20T17:03:30.347Z,6.60
2019-02-20T17:06:00.499Z,7.07
2019-02-20T17:08:30.736Z,8.30
2019-02-20T17:11:00.872Z,8.77
2019-02-20T17:13:31.178Z,8.77
2019-02-20T17:16:01.265Z,8.53
2019-02-20T17:18:31.479Z,6.93
2019-02-20T17:21:01.576Z,8.30
2019-02-20T17:23:32.033Z,7.07
2019-02-20T17:26:02.137Z,6.53
2019-02-20T17:28:32.275Z,6.00
2019-02-20T17:31:02.426Z,7.83
2019-02-20T17:33:32.649Z,8.53
2019-02-20T17:36:04.449Z,7.20
2019-02-20T17:38:34.993Z,6.47
2019-02-20T17:41:05.273Z,5.43
2019-02-20T17:43:43.323Z,5.50
2019-02-20T17:46:15.105Z,5.97
2019-02-20T17:48:45.224Z,5.10
2019-02-20T17:51:15.702Z,6.33
2019-02-20T17:53:46.272Z,5.17
2019-02-20T17:56:16.357Z,4.57
2019-02-20T17:58:46.486Z,6.10
2019-02-20T18:01:18.006Z,11.93
2019-02-20T18:03:48.053Z,6.57
2019-02-20T18:06:18.140Z,5.90
2019-02-20T18:08:48.368Z,6.17
2019-02-20T18:11:18.386Z,8.30
2019-02-20T18:13:48.480Z,7.90
2019-02-20T18:16:18.641Z,7.90
2019-02-20T18:18:48.829Z,7.23
2019-02-20T18:21:19.063Z,6.20
2019-02-20T18:23:49.272Z,7.53
2019-02-20T18:26:19.435Z,8.13
2019-02-20T18:28:49.652Z,8.67
2019-02-20T18:31:19.879Z,8.93
2019-02-20T18:33:50.198Z,8.43
2019-02-20T18:36:20.315Z,6.70
2019-02-20T18:38:50.478Z,7.03
2019-02-20T18:41:20.638Z,7.70
2019-02-20T18:43:50.926Z,8.23
2019-02-20T18:46:21.061Z,9.70
2019-02-20T18:48:51.237Z,12.47
2019-02-20T18:51:21.505Z,9.87
2019-02-20T18:53:51.660Z,10.27
2019-02-20T18:56:22.007Z,11.90
2019-02-20T18:58:52.149Z,12.17
2019-02-20T19:01:22.233Z,9.10
2019-02-20T19:03:52.416Z,11.47
2019-02-20T19:06:22.598Z,8.70
2019-02-20T19:09:09.479Z,10.37
2019-02-20T19:12:22.713Z,11.93
2019-02-20T19:15:13.536Z,8.93
2019-02-20T19:18:25.506Z,9.60
2019-02-20T19:21:33.029Z,8.80
2019-02-20T19:24:43.790Z,8.47
2019-02-20T19:27:20.820Z,9.53
2019-02-20T19:30:22.218Z,9.70
2019-02-20T19:33:24.396Z,9.47
2019-02-20T19:36:26.512Z,11.53
2019-02-20T19:39:19.372Z,15.63
2019-02-20T19:42:26.232Z,13.23
2019-02-20T19:46:01.546Z,13.43
2019-02-20T19:48:57.236Z,10.90
2019-02-20T19:52:00.351Z,11.50
2019-02-20T19:54:45.178Z,16.70
2019-02-20T19:57:51.057Z,14.33
2019-02-20T20:01:06.280Z,10.67
2019-02-20T20:03:49.504Z,12.50
2019-02-20T20:06:48.993Z,12.03
2019-02-20T20:09:55.866Z,11.83
2019-02-20T20:13:08.051Z,11.47
2019-02-20T20:16:00.435Z,11.03
2019-02-20T20:19:09.555Z,12.60
2019-02-20T20:22:27.400Z,9.73
2019-02-20T20:25:34.579Z,11.33
2019-02-20T20:28:36.225Z,11.57
2019-02-20T20:31:56.275Z,11.37
2019-02-20T20:35:09.067Z,11.13
2019-02-20T20:38:12.893Z,11.03
2019-02-20T20:41:45.308Z,12.23
2019-02-20T20:45:14.707Z,11.57
2019-02-20T20:48:14.150Z,12.80
2019-02-20T20:51:24.657Z,13.33
2019-02-20T20:54:33.924Z,14.10
2019-02-20T20:57:23.132Z,13.63
2019-02-20T21:00:37.130Z,13.20
2019-02-20T21:03:10.608Z,14.20
2019-02-20T21:06:36.714Z,11.63
2019-02-20T21:09:29.773Z,13.73
2019-02-20T21:12:34.774Z,13.83
2019-02-20T21:15:36.174Z,14.87
2019-02-20T21:19:03.688Z,16.87
2019-02-20T21:22:41.931Z,15.57
2019-02-20T21:26:08.419Z,13.87
2019-02-20T21:29:28.832Z,16.87
2019-02-20T21:32:31.476Z,15.30
2019-02-20T21:35:26.424Z,14.17
2019-02-20T21:38:29.681Z,16.43
2019-02-20T21:41:12.700Z,18.00
2019-02-20T21:43:59.416Z,17.00
2019-02-20T21:47:29.060Z,15.67
2019-02-20T21:50:38.010Z,15.90
2019-02-20T21:53:36.952Z,18.10
2019-02-20T21:56:25.144Z,19.03
2019-02-20T21:59:18.780Z,18.87
2019-02-20T22:02:32.197Z,22.27
2019-02-20T22:05:40.615Z,19.40
2019-02-20T22:08:50.455Z,20.20
2019-02-20T22:12:17.069Z,21.37
2019-02-20T22:15:27.665Z,21.50
2019-02-20T22:18:28.412Z,21.73
2019-02-20T22:21:48.742Z,20.03
2019-02-20T22:24:44.213Z,22.87
2019-02-20T22:27:42.711Z,23.73
2019-02-20T22:30:59.025Z,24.43
2019-02-20T22:33:37.753Z,27.77
2019-02-20T22:36:45.089Z,25.67
2019-02-20T22:39:46.183Z,27.33
2019-02-20T22:42:44.928Z,26.93
2019-02-20T22:45:45.927Z,29.50
2019-02-20T22:48:55.539Z,29.63
2019-02-20T22:52:03.668Z,28.90
2019-02-20T22:55:16.401Z,32.63
2019-02-20T22:58:13.666Z,29.70
2019-02-20T23:01:29.801Z,29.20
2019-02-20T23:04:08.895Z,29.63
2019-02-20T23:07:08.613Z,31.97
2019-02-20T23:10:21.462Z,30.77
2019-02-20T23:13:32.105Z,33.17
2019-02-20T23:16:02.181Z,32.40
2019-02-20T23:18:32.231Z,35.30
2019-02-20T23:21:02.349Z,34.30
2019-02-20T23:23:32.397Z,31.83
2019-02-20T23:26:02.521Z,31.03
2019-02-20T23:28:32.634Z,32.27
2019-02-20T23:31:03.929Z,32.90
2019-02-20T23:33:34.165Z,37.27
2019-02-20T23:36:04.235Z,36.37
2019-02-20T23:38:34.370Z,34.90
2019-02-20T23:41:04.519Z,35.90
2019-02-20T23:43:34.644Z,35.93
2019-02-20T23:46:04.655Z,32.23
2019-02-20T23:48:34.668Z,34.03
2019-02-20T23:51:04.710Z,34.83
2019-02-20T23:53:34.730Z,35.90
2019-02-20T23:56:04.856Z,32.73
2019-02-20T23:58:34.948Z,35.73
